BUF weather

Buffalo Niagara International Airport
Buffalo, New York, United States

Public forecast

Using degrees Fahrenheit for public forecast. Weather courtesy of forecast.io.

METAR (pilot weather report)

Retrieved 2018/02/25 04:54 UTC (48 minutes ago):

KBUF 250454Z 09010KT 10SM BKN085 03/01 A3003 RMK AO2 SLP178 T00330006 400500022 $

TAF (pilot weather forecast)

Forecast is more than 12 hours old.

Retrieved 2018/02/24 00:27 UTC (1 day ago):

TAF KBUF 242325Z 2500/2524 08009KT P6SM BKN020 BKN100 FM250500 11012KT 6SM -RA OVC025 WS020/15040KT FM251100 17015G25KT 6SM -RA OVC030 WS020/18045KT FM251300 18016G35KT 6SM -RA OVC015 WS020/21050KT FM251500 20019G41KT P6SM OVC015 WS020/24055KT FM251600 21021G50KT P6SM BKN250 FM252300 24018G45KT P6SM BKN250